sensor_id;sensor_type;location;lat;lon;timestamp;P1;durP1;ratioP1;P2;durP2;ratioP2
40611;SDS011;26317;44.894;20.286;2023-02-15T00:00:48;58.65;;;47.88;;
40611;SDS011;26317;44.894;20.286;2023-02-15T00:03:18;57.90;;;47.03;;
40611;SDS011;26317;44.894;20.286;2023-02-15T00:05:51;61.75;;;49.25;;
40611;SDS011;26317;44.894;20.286;2023-02-15T00:08:21;57.10;;;46.95;;
40611;SDS011;26317;44.894;20.286;2023-02-15T00:10:52;56.22;;;46.33;;
40611;SDS011;26317;44.894;20.286;2023-02-15T00:13:27;56.55;;;45.58;;
40611;SDS011;26317;44.894;20.286;2023-02-15T00:16:00;65.20;;;47.70;;
40611;SDS011;26317;44.894;20.286;2023-02-15T00:18:36;62.40;;;48.33;;
40611;SDS011;26317;44.894;20.286;2023-02-15T00:21:09;61.97;;;48.47;;
40611;SDS011;26317;44.894;20.286;2023-02-15T00:23:42;60.67;;;47.13;;
40611;SDS011;26317;44.894;20.286;2023-02-15T00:26:15;62.15;;;50.60;;
40611;SDS011;26317;44.894;20.286;2023-02-15T00:28:45;64.43;;;51.05;;
40611;SDS011;26317;44.894;20.286;2023-02-15T00:31:15;67.47;;;50.92;;
40611;SDS011;26317;44.894;20.286;2023-02-15T00:33:55;61.10;;;51.67;;
40611;SDS011;26317;44.894;20.286;2023-02-15T00:36:33;62.95;;;50.25;;
40611;SDS011;26317;44.894;20.286;2023-02-15T00:39:04;63.22;;;50.88;;
40611;SDS011;26317;44.894;20.286;2023-02-15T00:44:07;66.82;;;51.70;;
40611;SDS011;26317;44.894;20.286;2023-02-15T00:46:37;64.70;;;52.67;;
40611;SDS011;26317;44.894;20.286;2023-02-15T00:49:09;66.55;;;53.45;;
40611;SDS011;26317;44.894;20.286;2023-02-15T00:51:45;68.93;;;54.90;;
40611;SDS011;26317;44.894;20.286;2023-02-15T00:54:18;68.93;;;56.08;;
40611;SDS011;26317;44.894;20.286;2023-02-15T00:56:50;68.80;;;53.45;;
40611;SDS011;26317;44.894;20.286;2023-02-15T00:59:20;66.03;;;52.03;;
40611;SDS011;26317;44.894;20.286;2023-02-15T01:01:52;66.20;;;54.10;;
40611;SDS011;26317;44.894;20.286;2023-02-15T01:04:25;67.95;;;54.85;;
40611;SDS011;26317;44.894;20.286;2023-02-15T01:07:03;69.72;;;54.28;;
40611;SDS011;26317;44.894;20.286;2023-02-15T01:09:34;68.93;;;53.58;;
40611;SDS011;26317;44.894;20.286;2023-02-15T01:12:05;68.18;;;53.28;;
40611;SDS011;26317;44.894;20.286;2023-02-15T01:14:38;66.78;;;53.20;;
40611;SDS011;26317;44.894;20.286;2023-02-15T01:17:09;67.28;;;53.72;;
40611;SDS011;26317;44.894;20.286;2023-02-15T01:19:39;63.45;;;52.92;;
40611;SDS011;26317;44.894;20.286;2023-02-15T01:22:21;65.65;;;53.65;;
40611;SDS011;26317;44.894;20.286;2023-02-15T01:24:53;68.82;;;53.58;;
40611;SDS011;26317;44.894;20.286;2023-02-15T01:27:24;62.13;;;51.45;;
40611;SDS011;26317;44.894;20.286;2023-02-15T01:29:57;70.65;;;53.60;;
40611;SDS011;26317;44.894;20.286;2023-02-15T01:34:58;67.65;;;52.60;;
40611;SDS011;26317;44.894;20.286;2023-02-15T01:37:34;70.45;;;52.40;;
40611;SDS011;26317;44.894;20.286;2023-02-15T01:40:10;65.13;;;52.65;;
40611;SDS011;26317;44.894;20.286;2023-02-15T01:42:44;69.30;;;54.67;;
40611;SDS011;26317;44.894;20.286;2023-02-15T01:45:18;66.30;;;54.75;;
40611;SDS011;26317;44.894;20.286;2023-02-15T01:47:56;64.20;;;52.38;;
40611;SDS011;26317;44.894;20.286;2023-02-15T01:50:34;64.85;;;52.05;;
40611;SDS011;26317;44.894;20.286;2023-02-15T01:53:11;62.28;;;50.50;;
40611;SDS011;26317;44.894;20.286;2023-02-15T01:55:50;59.90;;;48.97;;
40611;SDS011;26317;44.894;20.286;2023-02-15T01:58:26;66.93;;;51.00;;
40611;SDS011;26317;44.894;20.286;2023-02-15T02:01:00;61.58;;;49.58;;
40611;SDS011;26317;44.894;20.286;2023-02-15T02:03:36;63.85;;;50.05;;
40611;SDS011;26317;44.894;20.286;2023-02-15T02:06:13;58.72;;;49.15;;
40611;SDS011;26317;44.894;20.286;2023-02-15T02:08:47;62.75;;;49.90;;
40611;SDS011;26317;44.894;20.286;2023-02-15T02:11:18;62.08;;;49.53;;
40611;SDS011;26317;44.894;20.286;2023-02-15T02:13:48;63.15;;;49.45;;
40611;SDS011;26317;44.894;20.286;2023-02-15T02:16:23;60.97;;;48.72;;
40611;SDS011;26317;44.894;20.286;2023-02-15T02:19:00;62.05;;;48.70;;
40611;SDS011;26317;44.894;20.286;2023-02-15T02:27:52;65.30;;;53.05;;
40611;SDS011;26317;44.894;20.286;2023-02-15T02:30:35;59.38;;;48.42;;
40611;SDS011;26317;44.894;20.286;2023-02-15T02:33:24;62.20;;;50.42;;
40611;SDS011;26317;44.894;20.286;2023-02-15T02:36:15;60.17;;;49.58;;
40611;SDS011;26317;44.894;20.286;2023-02-15T02:38:51;60.97;;;48.95;;
40611;SDS011;26317;44.894;20.286;2023-02-15T02:41:30;63.25;;;50.25;;
40611;SDS011;26317;44.894;20.286;2023-02-15T02:44:10;63.90;;;51.33;;
40611;SDS011;26317;44.894;20.286;2023-02-15T02:46:50;58.15;;;47.35;;
40611;SDS011;26317;44.894;20.286;2023-02-15T02:49:35;59.10;;;48.90;;
40611;SDS011;26317;44.894;20.286;2023-02-15T02:55:05;61.03;;;49.80;;
40611;SDS011;26317;44.894;20.286;2023-02-15T02:57:40;63.85;;;49.92;;
40611;SDS011;26317;44.894;20.286;2023-02-15T03:00:19;60.78;;;49.28;;
40611;SDS011;26317;44.894;20.286;2023-02-15T03:02:53;58.05;;;47.63;;
40611;SDS011;26317;44.894;20.286;2023-02-15T03:05:35;59.67;;;47.80;;
40611;SDS011;26317;44.894;20.286;2023-02-15T03:08:11;58.90;;;46.65;;
40611;SDS011;26317;44.894;20.286;2023-02-15T03:10:52;59.30;;;47.75;;
40611;SDS011;26317;44.894;20.286;2023-02-15T03:13:26;54.35;;;44.42;;
40611;SDS011;26317;44.894;20.286;2023-02-15T03:15:58;59.50;;;44.95;;
40611;SDS011;26317;44.894;20.286;2023-02-15T03:18:45;61.53;;;49.22;;
40611;SDS011;26317;44.894;20.286;2023-02-15T03:21:23;55.45;;;45.47;;
40611;SDS011;26317;44.894;20.286;2023-02-15T03:24:07;50.05;;;42.85;;
40611;SDS011;26317;44.894;20.286;2023-02-15T03:26:43;51.53;;;43.20;;
40611;SDS011;26317;44.894;20.286;2023-02-15T03:29:20;60.35;;;46.30;;
40611;SDS011;26317;44.894;20.286;2023-02-15T03:31:56;54.63;;;44.50;;
40611;SDS011;26317;44.894;20.286;2023-02-15T03:34:31;57.83;;;46.20;;
40611;SDS011;26317;44.894;20.286;2023-02-15T03:37:07;52.92;;;44.50;;
40611;SDS011;26317;44.894;20.286;2023-02-15T03:39:44;59.88;;;45.72;;
40611;SDS011;26317;44.894;20.286;2023-02-15T03:42:21;54.42;;;43.80;;
40611;SDS011;26317;44.894;20.286;2023-02-15T03:44:57;61.42;;;48.30;;
40611;SDS011;26317;44.894;20.286;2023-02-15T03:47:33;58.80;;;47.33;;
40611;SDS011;26317;44.894;20.286;2023-02-15T03:50:07;65.85;;;50.50;;
40611;SDS011;26317;44.894;20.286;2023-02-15T03:52:57;60.28;;;47.42;;
40611;SDS011;26317;44.894;20.286;2023-02-15T03:55:30;65.82;;;52.92;;
40611;SDS011;26317;44.894;20.286;2023-02-15T04:00:47;62.65;;;50.38;;
40611;SDS011;26317;44.894;20.286;2023-02-15T04:03:38;68.70;;;57.10;;
40611;SDS011;26317;44.894;20.286;2023-02-15T04:06:13;67.60;;;56.15;;
40611;SDS011;26317;44.894;20.286;2023-02-15T04:08:49;76.85;;;58.38;;
40611;SDS011;26317;44.894;20.286;2023-02-15T04:11:32;64.65;;;53.55;;
40611;SDS011;26317;44.894;20.286;2023-02-15T04:14:04;63.03;;;52.50;;
40611;SDS011;26317;44.894;20.286;2023-02-15T04:16:55;62.05;;;51.65;;
40611;SDS011;26317;44.894;20.286;2023-02-15T04:19:23;61.03;;;50.13;;
40611;SDS011;26317;44.894;20.286;2023-02-15T04:22:06;65.60;;;52.83;;
40611;SDS011;26317;44.894;20.286;2023-02-15T04:24:54;62.50;;;50.42;;
40611;SDS011;26317;44.894;20.286;2023-02-15T04:27:38;61.10;;;50.00;;
40611;SDS011;26317;44.894;20.286;2023-02-15T04:30:13;61.05;;;49.72;;
40611;SDS011;26317;44.894;20.286;2023-02-15T04:32:45;63.92;;;51.42;;
40611;SDS011;26317;44.894;20.286;2023-02-15T04:35:16;64.45;;;51.33;;
40611;SDS011;26317;44.894;20.286;2023-02-15T04:37:47;61.63;;;51.90;;
40611;SDS011;26317;44.894;20.286;2023-02-15T04:40:20;61.20;;;51.50;;
40611;SDS011;26317;44.894;20.286;2023-02-15T04:42:51;62.10;;;50.95;;
40611;SDS011;26317;44.894;20.286;2023-02-15T04:45:22;62.22;;;51.10;;
40611;SDS011;26317;44.894;20.286;2023-02-15T04:47:57;62.70;;;50.15;;
40611;SDS011;26317;44.894;20.286;2023-02-15T04:50:32;67.93;;;56.25;;
40611;SDS011;26317;44.894;20.286;2023-02-15T04:53:03;76.65;;;60.88;;
40611;SDS011;26317;44.894;20.286;2023-02-15T04:55:36;69.30;;;57.05;;
40611;SDS011;26317;44.894;20.286;2023-02-15T04:58:07;68.45;;;56.83;;
40611;SDS011;26317;44.894;20.286;2023-02-15T05:00:38;76.78;;;61.67;;
40611;SDS011;26317;44.894;20.286;2023-02-15T05:03:09;73.63;;;62.00;;
40611;SDS011;26317;44.894;20.286;2023-02-15T05:05:39;67.63;;;56.28;;
40611;SDS011;26317;44.894;20.286;2023-02-15T05:08:09;70.90;;;57.75;;
40611;SDS011;26317;44.894;20.286;2023-02-15T05:10:44;63.80;;;54.47;;
40611;SDS011;26317;44.894;20.286;2023-02-15T05:13:17;63.72;;;51.40;;
40611;SDS011;26317;44.894;20.286;2023-02-15T05:15:48;64.55;;;54.45;;
40611;SDS011;26317;44.894;20.286;2023-02-15T05:18:21;63.47;;;53.47;;
40611;SDS011;26317;44.894;20.286;2023-02-15T05:20:52;66.20;;;54.83;;
40611;SDS011;26317;44.894;20.286;2023-02-15T05:23:23;68.97;;;56.05;;
40611;SDS011;26317;44.894;20.286;2023-02-15T05:25:58;72.10;;;56.88;;
40611;SDS011;26317;44.894;20.286;2023-02-15T05:28:41;66.10;;;56.13;;
40611;SDS011;26317;44.894;20.286;2023-02-15T05:31:12;65.10;;;55.90;;
40611;SDS011;26317;44.894;20.286;2023-02-15T05:33:44;67.05;;;56.92;;
40611;SDS011;26317;44.894;20.286;2023-02-15T05:36:15;67.65;;;55.47;;
40611;SDS011;26317;44.894;20.286;2023-02-15T05:41:22;70.57;;;56.33;;
40611;SDS011;26317;44.894;20.286;2023-02-15T05:43:54;64.35;;;56.22;;
40611;SDS011;26317;44.894;20.286;2023-02-15T05:46:25;71.05;;;57.25;;
40611;SDS011;26317;44.894;20.286;2023-02-15T05:48:56;69.00;;;56.30;;
40611;SDS011;26317;44.894;20.286;2023-02-15T05:51:28;68.25;;;55.67;;
40611;SDS011;26317;44.894;20.286;2023-02-15T05:54:01;60.35;;;53.15;;
40611;SDS011;26317;44.894;20.286;2023-02-15T05:56:37;71.22;;;56.90;;
40611;SDS011;26317;44.894;20.286;2023-02-15T05:59:08;70.00;;;57.58;;
40611;SDS011;26317;44.894;20.286;2023-02-15T06:01:39;63.13;;;53.47;;
40611;SDS011;26317;44.894;20.286;2023-02-15T06:04:17;68.20;;;56.58;;
40611;SDS011;26317;44.894;20.286;2023-02-15T06:09:18;69.30;;;56.92;;
40611;SDS011;26317;44.894;20.286;2023-02-15T06:12:00;77.25;;;61.25;;
40611;SDS011;26317;44.894;20.286;2023-02-15T06:14:30;72.20;;;60.13;;
40611;SDS011;26317;44.894;20.286;2023-02-15T06:17:02;74.80;;;58.38;;
40611;SDS011;26317;44.894;20.286;2023-02-15T06:22:04;69.65;;;59.08;;
40611;SDS011;26317;44.894;20.286;2023-02-15T06:24:35;68.90;;;59.63;;
40611;SDS011;26317;44.894;20.286;2023-02-15T06:27:08;71.70;;;60.65;;
40611;SDS011;26317;44.894;20.286;2023-02-15T06:29:39;69.95;;;57.75;;
40611;SDS011;26317;44.894;20.286;2023-02-15T06:32:10;73.93;;;60.55;;
40611;SDS011;26317;44.894;20.286;2023-02-15T06:34:41;73.45;;;59.78;;
40611;SDS011;26317;44.894;20.286;2023-02-15T06:37:17;66.72;;;57.22;;
40611;SDS011;26317;44.894;20.286;2023-02-15T06:39:50;69.82;;;57.95;;
40611;SDS011;26317;44.894;20.286;2023-02-15T06:42:26;73.35;;;61.40;;
40611;SDS011;26317;44.894;20.286;2023-02-15T06:45:03;77.30;;;64.55;;
40611;SDS011;26317;44.894;20.286;2023-02-15T06:47:35;76.10;;;63.90;;
40611;SDS011;26317;44.894;20.286;2023-02-15T06:50:11;74.43;;;62.03;;
40611;SDS011;26317;44.894;20.286;2023-02-15T06:52:54;77.57;;;65.47;;
40611;SDS011;26317;44.894;20.286;2023-02-15T06:55:31;76.07;;;63.45;;
40611;SDS011;26317;44.894;20.286;2023-02-15T06:58:08;80.15;;;65.35;;
40611;SDS011;26317;44.894;20.286;2023-02-15T07:00:42;74.78;;;62.17;;
40611;SDS011;26317;44.894;20.286;2023-02-15T07:03:13;78.35;;;62.95;;
40611;SDS011;26317;44.894;20.286;2023-02-15T07:05:44;75.60;;;65.70;;
40611;SDS011;26317;44.894;20.286;2023-02-15T07:08:18;76.03;;;63.58;;
40611;SDS011;26317;44.894;20.286;2023-02-15T07:10:53;76.63;;;64.75;;
40611;SDS011;26317;44.894;20.286;2023-02-15T07:13:53;76.38;;;66.38;;
40611;SDS011;26317;44.894;20.286;2023-02-15T07:16:35;80.35;;;67.32;;
40611;SDS011;26317;44.894;20.286;2023-02-15T07:19:12;79.07;;;65.78;;
40611;SDS011;26317;44.894;20.286;2023-02-15T07:21:46;80.90;;;67.88;;
40611;SDS011;26317;44.894;20.286;2023-02-15T07:24:28;76.85;;;63.25;;
40611;SDS011;26317;44.894;20.286;2023-02-15T07:27:06;77.05;;;62.53;;
40611;SDS011;26317;44.894;20.286;2023-02-15T07:30:12;79.95;;;66.07;;
40611;SDS011;26317;44.894;20.286;2023-02-15T07:32:49;79.60;;;65.80;;
40611;SDS011;26317;44.894;20.286;2023-02-15T07:35:45;79.03;;;65.80;;
40611;SDS011;26317;44.894;20.286;2023-02-15T07:38:46;83.72;;;70.97;;
40611;SDS011;26317;44.894;20.286;2023-02-15T07:41:32;89.07;;;71.35;;
40611;SDS011;26317;44.894;20.286;2023-02-15T07:44:47;86.22;;;71.10;;
40611;SDS011;26317;44.894;20.286;2023-02-15T07:47:29;85.75;;;69.40;;
40611;SDS011;26317;44.894;20.286;2023-02-15T07:50:07;84.97;;;67.40;;
40611;SDS011;26317;44.894;20.286;2023-02-15T07:52:42;78.22;;;65.70;;
40611;SDS011;26317;44.894;20.286;2023-02-15T07:55:14;76.78;;;65.40;;
40611;SDS011;26317;44.894;20.286;2023-02-15T07:57:46;78.72;;;66.30;;
40611;SDS011;26317;44.894;20.286;2023-02-15T08:00:20;81.50;;;70.53;;
40611;SDS011;26317;44.894;20.286;2023-02-15T08:02:56;79.18;;;69.18;;
40611;SDS011;26317;44.894;20.286;2023-02-15T08:05:39;82.38;;;70.13;;
40611;SDS011;26317;44.894;20.286;2023-02-15T08:08:11;81.93;;;65.75;;
40611;SDS011;26317;44.894;20.286;2023-02-15T08:10:58;74.43;;;64.50;;
40611;SDS011;26317;44.894;20.286;2023-02-15T08:14:01;78.20;;;64.25;;
40611;SDS011;26317;44.894;20.286;2023-02-15T08:16:34;78.75;;;65.40;;
40611;SDS011;26317;44.894;20.286;2023-02-15T08:19:15;70.95;;;62.35;;
40611;SDS011;26317;44.894;20.286;2023-02-15T08:21:50;74.82;;;63.65;;
40611;SDS011;26317;44.894;20.286;2023-02-15T08:24:35;69.53;;;61.17;;
40611;SDS011;26317;44.894;20.286;2023-02-15T08:27:11;74.32;;;61.88;;
40611;SDS011;26317;44.894;20.286;2023-02-15T08:29:56;83.15;;;65.43;;
40611;SDS011;26317;44.894;20.286;2023-02-15T08:32:33;78.85;;;62.75;;
40611;SDS011;26317;44.894;20.286;2023-02-15T08:35:19;75.53;;;59.67;;
40611;SDS011;26317;44.894;20.286;2023-02-15T08:37:53;74.88;;;60.55;;
40611;SDS011;26317;44.894;20.286;2023-02-15T08:40:25;70.32;;;59.85;;
40611;SDS011;26317;44.894;20.286;2023-02-15T08:45:26;70.85;;;58.72;;
40611;SDS011;26317;44.894;20.286;2023-02-15T08:50:45;70.47;;;57.88;;
40611;SDS011;26317;44.894;20.286;2023-02-15T08:53:16;72.43;;;61.60;;
40611;SDS011;26317;44.894;20.286;2023-02-15T08:55:54;68.85;;;58.50;;
40611;SDS011;26317;44.894;20.286;2023-02-15T08:58:26;73.55;;;58.25;;
40611;SDS011;26317;44.894;20.286;2023-02-15T09:00:58;77.40;;;61.75;;
40611;SDS011;26317;44.894;20.286;2023-02-15T09:03:29;76.07;;;60.22;;
40611;SDS011;26317;44.894;20.286;2023-02-15T09:06:03;69.60;;;58.50;;
40611;SDS011;26317;44.894;20.286;2023-02-15T09:08:35;72.47;;;59.97;;
40611;SDS011;26317;44.894;20.286;2023-02-15T09:11:07;71.80;;;59.33;;
40611;SDS011;26317;44.894;20.286;2023-02-15T09:13:39;67.55;;;57.25;;
40611;SDS011;26317;44.894;20.286;2023-02-15T09:16:11;71.38;;;57.78;;
40611;SDS011;26317;44.894;20.286;2023-02-15T09:18:43;63.80;;;55.45;;
40611;SDS011;26317;44.894;20.286;2023-02-15T09:21:22;70.47;;;57.55;;
40611;SDS011;26317;44.894;20.286;2023-02-15T09:23:55;76.55;;;60.97;;
40611;SDS011;26317;44.894;20.286;2023-02-15T09:26:34;72.13;;;59.10;;
40611;SDS011;26317;44.894;20.286;2023-02-15T09:29:15;77.72;;;59.60;;
40611;SDS011;26317;44.894;20.286;2023-02-15T09:31:48;73.25;;;59.50;;
40611;SDS011;26317;44.894;20.286;2023-02-15T09:34:22;71.22;;;59.47;;
40611;SDS011;26317;44.894;20.286;2023-02-15T09:36:58;68.97;;;56.65;;
40611;SDS011;26317;44.894;20.286;2023-02-15T09:39:29;73.60;;;59.85;;
40611;SDS011;26317;44.894;20.286;2023-02-15T09:42:22;48.38;;;41.25;;
40611;SDS011;26317;44.894;20.286;2023-02-15T09:45:07;56.05;;;47.28;;
40611;SDS011;26317;44.894;20.286;2023-02-15T09:50:27;45.42;;;37.97;;
40611;SDS011;26317;44.894;20.286;2023-02-15T09:56:13;40.30;;;30.30;;
40611;SDS011;26317;44.894;20.286;2023-02-15T09:58:50;34.95;;;28.85;;
40611;SDS011;26317;44.894;20.286;2023-02-15T10:01:32;36.80;;;31.70;;
40611;SDS011;26317;44.894;20.286;2023-02-15T10:07:05;33.15;;;27.65;;
40611;SDS011;26317;44.894;20.286;2023-02-15T10:09:54;32.83;;;28.58;;
40611;SDS011;26317;44.894;20.286;2023-02-15T10:12:46;34.20;;;28.85;;
40611;SDS011;26317;44.894;20.286;2023-02-15T10:15:28;34.15;;;28.85;;
40611;SDS011;26317;44.894;20.286;2023-02-15T10:18:11;34.33;;;28.67;;
40611;SDS011;26317;44.894;20.286;2023-02-15T10:20:56;32.45;;;26.85;;
40611;SDS011;26317;44.894;20.286;2023-02-15T10:23:45;34.17;;;27.73;;
40611;SDS011;26317;44.894;20.286;2023-02-15T10:26:33;30.17;;;26.88;;
40611;SDS011;26317;44.894;20.286;2023-02-15T10:29:19;30.80;;;25.50;;
40611;SDS011;26317;44.894;20.286;2023-02-15T10:32:05;37.92;;;25.85;;
40611;SDS011;26317;44.894;20.286;2023-02-15T10:34:54;31.92;;;26.45;;
40611;SDS011;26317;44.894;20.286;2023-02-15T10:40:40;29.50;;;24.77;;
40611;SDS011;26317;44.894;20.286;2023-02-15T10:43:37;27.15;;;24.17;;
40611;SDS011;26317;44.894;20.286;2023-02-15T10:46:37;27.08;;;23.15;;
40611;SDS011;26317;44.894;20.286;2023-02-15T10:49:42;26.83;;;22.57;;
40611;SDS011;26317;44.894;20.286;2023-02-15T10:53:08;28.90;;;24.00;;
40611;SDS011;26317;44.894;20.286;2023-02-15T10:55:59;36.25;;;28.65;;
40611;SDS011;26317;44.894;20.286;2023-02-15T10:58:44;28.38;;;23.73;;
40611;SDS011;26317;44.894;20.286;2023-02-15T11:01:44;26.30;;;22.58;;
40611;SDS011;26317;44.894;20.286;2023-02-15T11:04:37;25.83;;;22.52;;
40611;SDS011;26317;44.894;20.286;2023-02-15T11:07:32;25.27;;;22.52;;
40611;SDS011;26317;44.894;20.286;2023-02-15T11:10:14;29.02;;;23.30;;
40611;SDS011;26317;44.894;20.286;2023-02-15T11:13:02;31.83;;;23.65;;
40611;SDS011;26317;44.894;20.286;2023-02-15T11:15:41;31.98;;;25.52;;
40611;SDS011;26317;44.894;20.286;2023-02-15T11:18:23;27.42;;;22.48;;
40611;SDS011;26317;44.894;20.286;2023-02-15T11:21:04;25.40;;;21.92;;
40611;SDS011;26317;44.894;20.286;2023-02-15T11:23:40;26.08;;;21.13;;
40611;SDS011;26317;44.894;20.286;2023-02-15T11:26:16;27.02;;;22.55;;
40611;SDS011;26317;44.894;20.286;2023-02-15T11:29:00;29.23;;;22.63;;
40611;SDS011;26317;44.894;20.286;2023-02-15T11:31:44;28.90;;;23.83;;
40611;SDS011;26317;44.894;20.286;2023-02-15T11:34:25;30.42;;;23.85;;
40611;SDS011;26317;44.894;20.286;2023-02-15T11:37:08;28.52;;;24.25;;
40611;SDS011;26317;44.894;20.286;2023-02-15T11:39:45;25.85;;;22.88;;
40611;SDS011;26317;44.894;20.286;2023-02-15T11:42:20;29.80;;;23.00;;
40611;SDS011;26317;44.894;20.286;2023-02-15T11:44:58;28.13;;;22.88;;
40611;SDS011;26317;44.894;20.286;2023-02-15T11:47:41;33.58;;;27.25;;
40611;SDS011;26317;44.894;20.286;2023-02-15T11:50:19;26.17;;;22.73;;
40611;SDS011;26317;44.894;20.286;2023-02-15T11:53:01;26.55;;;22.50;;
40611;SDS011;26317;44.894;20.286;2023-02-15T11:55:35;38.28;;;30.70;;
40611;SDS011;26317;44.894;20.286;2023-02-15T11:58:11;28.65;;;22.10;;
40611;SDS011;26317;44.894;20.286;2023-02-15T12:00:56;23.75;;;20.55;;
40611;SDS011;26317;44.894;20.286;2023-02-15T12:03:35;24.23;;;21.45;;
40611;SDS011;26317;44.894;20.286;2023-02-15T12:06:24;25.70;;;21.52;;
40611;SDS011;26317;44.894;20.286;2023-02-15T12:09:01;23.05;;;20.55;;
40611;SDS011;26317;44.894;20.286;2023-02-15T12:11:38;23.33;;;20.77;;
40611;SDS011;26317;44.894;20.286;2023-02-15T12:14:10;25.27;;;22.33;;
40611;SDS011;26317;44.894;20.286;2023-02-15T12:16:43;27.92;;;23.17;;
40611;SDS011;26317;44.894;20.286;2023-02-15T12:19:24;26.80;;;22.55;;
40611;SDS011;26317;44.894;20.286;2023-02-15T12:22:04;28.38;;;23.80;;
40611;SDS011;26317;44.894;20.286;2023-02-15T12:24:48;29.05;;;21.83;;
40611;SDS011;26317;44.894;20.286;2023-02-15T12:27:24;26.60;;;22.52;;
40611;SDS011;26317;44.894;20.286;2023-02-15T12:30:13;38.70;;;34.47;;
40611;SDS011;26317;44.894;20.286;2023-02-15T12:32:58;25.42;;;21.77;;
40611;SDS011;26317;44.894;20.286;2023-02-15T12:35:42;24.65;;;21.35;;
40611;SDS011;26317;44.894;20.286;2023-02-15T12:38:26;25.00;;;21.95;;
40611;SDS011;26317;44.894;20.286;2023-02-15T12:41:03;29.80;;;22.20;;
40611;SDS011;26317;44.894;20.286;2023-02-15T12:43:37;26.42;;;22.25;;
40611;SDS011;26317;44.894;20.286;2023-02-15T12:49:14;27.55;;;22.42;;
40611;SDS011;26317;44.894;20.286;2023-02-15T12:51:48;26.10;;;22.55;;
40611;SDS011;26317;44.894;20.286;2023-02-15T12:57:21;22.88;;;19.48;;
40611;SDS011;26317;44.894;20.286;2023-02-15T13:00:02;27.52;;;20.65;;
40611;SDS011;26317;44.894;20.286;2023-02-15T13:02:36;27.80;;;21.92;;
40611;SDS011;26317;44.894;20.286;2023-02-15T13:05:18;25.77;;;21.58;;
40611;SDS011;26317;44.894;20.286;2023-02-15T13:07:55;26.63;;;22.40;;
40611;SDS011;26317;44.894;20.286;2023-02-15T13:10:35;26.85;;;22.63;;
40611;SDS011;26317;44.894;20.286;2023-02-15T13:13:09;30.30;;;25.88;;
40611;SDS011;26317;44.894;20.286;2023-02-15T13:15:41;54.40;;;44.20;;
40611;SDS011;26317;44.894;20.286;2023-02-15T13:18:25;33.55;;;26.60;;
40611;SDS011;26317;44.894;20.286;2023-02-15T13:21:04;30.15;;;24.70;;
40611;SDS011;26317;44.894;20.286;2023-02-15T13:23:41;29.42;;;23.67;;
40611;SDS011;26317;44.894;20.286;2023-02-15T13:26:19;24.67;;;21.58;;
40611;SDS011;26317;44.894;20.286;2023-02-15T13:28:54;26.83;;;22.23;;
40611;SDS011;26317;44.894;20.286;2023-02-15T13:31:29;26.88;;;23.17;;
40611;SDS011;26317;44.894;20.286;2023-02-15T13:34:07;32.85;;;23.33;;
40611;SDS011;26317;44.894;20.286;2023-02-15T13:36:48;28.58;;;23.40;;
40611;SDS011;26317;44.894;20.286;2023-02-15T13:39:26;26.40;;;22.77;;
40611;SDS011;26317;44.894;20.286;2023-02-15T13:42:13;26.02;;;21.92;;
40611;SDS011;26317;44.894;20.286;2023-02-15T13:45:02;29.48;;;22.55;;
40611;SDS011;26317;44.894;20.286;2023-02-15T13:47:52;26.65;;;22.83;;
40611;SDS011;26317;44.894;20.286;2023-02-15T13:50:33;25.42;;;21.55;;
40611;SDS011;26317;44.894;20.286;2023-02-15T13:53:18;28.00;;;21.27;;
40611;SDS011;26317;44.894;20.286;2023-02-15T13:56:02;24.70;;;21.52;;
40611;SDS011;26317;44.894;20.286;2023-02-15T13:58:58;27.50;;;22.27;;
40611;SDS011;26317;44.894;20.286;2023-02-15T14:01:44;24.98;;;22.17;;
40611;SDS011;26317;44.894;20.286;2023-02-15T14:07:23;27.50;;;22.67;;
40611;SDS011;26317;44.894;20.286;2023-02-15T14:10:09;27.40;;;22.70;;
40611;SDS011;26317;44.894;20.286;2023-02-15T14:12:58;29.80;;;23.13;;
40611;SDS011;26317;44.894;20.286;2023-02-15T14:15:46;28.30;;;22.80;;
40611;SDS011;26317;44.894;20.286;2023-02-15T14:18:20;27.65;;;22.58;;
40611;SDS011;26317;44.894;20.286;2023-02-15T14:21:02;27.25;;;21.98;;
40611;SDS011;26317;44.894;20.286;2023-02-15T14:23:43;35.45;;;23.77;;
40611;SDS011;26317;44.894;20.286;2023-02-15T14:26:32;27.70;;;23.75;;
40611;SDS011;26317;44.894;20.286;2023-02-15T14:29:14;27.08;;;23.73;;
40611;SDS011;26317;44.894;20.286;2023-02-15T14:31:59;30.98;;;25.77;;
40611;SDS011;26317;44.894;20.286;2023-02-15T14:34:50;32.20;;;27.30;;
40611;SDS011;26317;44.894;20.286;2023-02-15T14:37:29;26.70;;;23.80;;
40611;SDS011;26317;44.894;20.286;2023-02-15T14:40:17;28.95;;;25.48;;
40611;SDS011;26317;44.894;20.286;2023-02-15T14:43:11;27.33;;;23.25;;
40611;SDS011;26317;44.894;20.286;2023-02-15T14:45:53;29.38;;;22.85;;
40611;SDS011;26317;44.894;20.286;2023-02-15T14:48:28;28.42;;;24.25;;
40611;SDS011;26317;44.894;20.286;2023-02-15T14:51:02;30.85;;;22.88;;
40611;SDS011;26317;44.894;20.286;2023-02-15T14:53:36;29.20;;;23.48;;
40611;SDS011;26317;44.894;20.286;2023-02-15T14:56:28;27.50;;;24.15;;
40611;SDS011;26317;44.894;20.286;2023-02-15T15:01:55;31.77;;;24.65;;
40611;SDS011;26317;44.894;20.286;2023-02-15T15:04:35;29.73;;;23.02;;
40611;SDS011;26317;44.894;20.286;2023-02-15T15:07:09;30.73;;;26.95;;
40611;SDS011;26317;44.894;20.286;2023-02-15T15:09:58;38.53;;;30.63;;
40611;SDS011;26317;44.894;20.286;2023-02-15T15:12:43;29.30;;;23.98;;
40611;SDS011;26317;44.894;20.286;2023-02-15T15:15:32;31.60;;;26.60;;
40611;SDS011;26317;44.894;20.286;2023-02-15T15:37:02;30.25;;;24.48;;
40611;SDS011;26317;44.894;20.286;2023-02-15T15:46:20;34.30;;;26.42;;
40611;SDS011;26317;44.894;20.286;2023-02-15T15:49:15;36.22;;;30.05;;
40611;SDS011;26317;44.894;20.286;2023-02-15T15:51:47;35.22;;;29.33;;
40611;SDS011;26317;44.894;20.286;2023-02-15T15:54:20;34.33;;;29.38;;
40611;SDS011;26317;44.894;20.286;2023-02-15T15:56:53;36.22;;;31.60;;
40611;SDS011;26317;44.894;20.286;2023-02-15T15:59:30;35.63;;;28.90;;
40611;SDS011;26317;44.894;20.286;2023-02-15T16:02:03;37.13;;;30.58;;
40611;SDS011;26317;44.894;20.286;2023-02-15T16:04:35;36.50;;;28.20;;
40611;SDS011;26317;44.894;20.286;2023-02-15T16:07:20;33.70;;;26.23;;
40611;SDS011;26317;44.894;20.286;2023-02-15T16:09:54;35.20;;;27.67;;
40611;SDS011;26317;44.894;20.286;2023-02-15T16:12:27;30.83;;;26.08;;
40611;SDS011;26317;44.894;20.286;2023-02-15T16:15:04;30.70;;;25.67;;
40611;SDS011;26317;44.894;20.286;2023-02-15T16:17:46;40.75;;;27.75;;
40611;SDS011;26317;44.894;20.286;2023-02-15T16:20:21;36.15;;;29.02;;
40611;SDS011;26317;44.894;20.286;2023-02-15T16:22:56;36.03;;;30.08;;
40611;SDS011;26317;44.894;20.286;2023-02-15T16:25:43;37.97;;;32.65;;
40611;SDS011;26317;44.894;20.286;2023-02-15T16:28:23;49.67;;;37.90;;
40611;SDS011;26317;44.894;20.286;2023-02-15T16:31:07;59.13;;;41.17;;